Time;durP1;ratioP1;P1;durP2;ratioP2;P2;SDS_P1;SDS_P2;PMS_P1;PMS_P2;Temp;Humidity;BMP_temperature;BMP_pressure;BME280_temperature;BME280_humidity;BME280_pressure;Samples;Min_cycle;Max_cycle;Signal;HPM_P1;HPM_P2
2021/07/04 00:01:57;;;;;;;4.00;3.57;;;;;;;15.00;97.55;100149.19;5010887;28;20180;-73
2021/07/04 00:04:22;;;;;;;3.67;3.40;;;;;;;14.93;97.34;100148.19;5011143;28;20620;-73
2021/07/04 00:06:48;;;;;;;6.53;3.83;;;;;;;14.80;97.54;100153.72;5003474;28;20177;-73
2021/07/04 00:09:13;;;;;;;3.53;3.23;;;;;;;14.80;97.70;100153.72;4991612;28;20177;-73
2021/07/04 00:11:38;;;;;;;3.53;3.27;;;;;;;14.77;97.85;100148.13;4991492;28;20180;-73
2021/07/04 00:14:04;;;;;;;3.83;3.53;;;;;;;14.70;97.88;100154.19;4990186;28;20177;-73
2021/07/04 00:16:29;;;;;;;3.07;2.83;;;;;;;14.69;98.28;100151.78;4991692;28;20180;-73
2021/07/04 00:18:56;;;;;;;4.00;3.70;;;;;;;14.73;98.70;100158.19;4991730;28;20256;-73
2021/07/04 00:21:21;;;;;;;3.90;3.50;;;;;;;14.71;98.24;100152.22;4991390;28;20205;-73
2021/07/04 00:23:46;;;;;;;3.83;3.60;;;;;;;14.74;98.15;100154.28;4991585;28;20205;-73
2021/07/04 00:26:13;;;;;;;3.83;3.53;;;;;;;14.73;98.06;100150.72;4991717;28;20228;-73
2021/07/04 00:28:39;;;;;;;3.93;3.67;;;;;;;14.63;97.65;100153.97;4991352;28;20254;-73
2021/07/04 00:31:05;;;;;;;3.50;3.27;;;;;;;14.59;97.66;100162.09;4991032;28;20257;-74
2021/07/04 00:33:30;;;;;;;3.43;3.20;;;;;;;14.59;98.13;100153.84;4991379;28;20172;-73
2021/07/04 00:35:56;;;;;;;4.07;3.77;;;;;;;14.70;98.97;100150.63;4991309;28;20645;-73
2021/07/04 00:38:21;;;;;;;3.93;3.63;;;;;;;14.72;98.46;100154.63;4991331;28;20177;-73
2021/07/04 00:40:47;;;;;;;3.33;3.13;;;;;;;14.66;98.25;100141.47;4991552;28;20572;-74
2021/07/04 00:43:13;;;;;;;4.33;4.03;;;;;;;14.62;98.04;100138.63;4991456;28;20752;-73
2021/07/04 00:45:38;;;;;;;3.93;3.63;;;;;;;14.67;98.23;100143.88;4991115;28;20296;-73
2021/07/04 00:48:04;;;;;;;4.00;3.70;;;;;;;14.70;97.93;100145.94;4991315;28;20180;-73
2021/07/04 00:50:31;;;;;;;3.87;3.57;;;;;;;14.57;97.58;100152.59;4991198;28;20200;-73
2021/07/04 00:52:58;;;;;;;4.07;3.77;;;;;;;14.47;98.07;100142.09;4990963;28;20177;-74
2021/07/04 00:55:24;;;;;;;6.37;3.60;;;;;;;14.55;98.75;100139.19;4991174;28;20177;-73
2021/07/04 00:57:50;;;;;;;4.53;4.17;;;;;;;14.64;99.48;100141.03;4993170;28;20699;-73
2021/07/04 01:00:21;;;;;;;3.63;3.33;;;;;;;14.65;98.52;100143.44;4995120;28;20177;-73
2021/07/04 01:02:48;;;;;;;3.73;3.43;;;;;;;14.75;98.87;100142.94;4995192;28;20162;-73
2021/07/04 01:05:19;;;;;;;3.67;3.37;;;;;;;14.82;98.88;100137.66;4995203;28;20303;-74
2021/07/04 01:07:45;;;;;;;3.53;3.33;;;;;;;14.88;97.58;100136.25;4995145;28;20227;-73
2021/07/04 01:10:13;;;;;;;3.60;3.40;;;;;;;14.91;96.60;100136.75;4994860;28;20181;-74
2021/07/04 01:12:42;;;;;;;3.27;3.07;;;;;;;14.88;95.60;100132.72;4994681;28;20185;-73
2021/07/04 01:15:09;;;;;;;3.77;3.47;;;;;;;14.70;95.65;100132.19;4994710;28;20207;-73
2021/07/04 01:17:37;;;;;;;5.13;3.70;;;;;;;14.57;96.74;100133.34;4994876;28;20261;-73
2021/07/04 01:20:05;;;;;;;4.40;3.50;;;;;;;14.59;97.27;100131.84;4993513;28;20189;-73
2021/07/04 01:22:33;;;;;;;3.40;3.20;;;;;;;14.51;97.78;100124.53;4994214;28;20192;-73
2021/07/04 01:24:58;;;;;;;3.43;3.17;;;;;;;14.46;98.02;100124.75;4994759;28;20700;-73
2021/07/04 01:27:24;;;;;;;3.93;3.63;;;;;;;14.47;97.93;100120.91;5001552;28;20188;-73
2021/07/04 01:29:49;;;;;;;2.97;2.77;;;;;;;14.46;97.82;100126.72;5014183;28;20197;-73
2021/07/04 01:32:14;;;;;;;3.57;3.37;;;;;;;14.47;98.13;100115.41;5014207;28;20652;-73
2021/07/04 01:34:40;;;;;;;3.30;3.10;;;;;;;14.53;98.82;100124.19;5014703;28;20235;-74
2021/07/04 01:37:05;;;;;;;3.73;3.43;;;;;;;14.61;98.25;100119.69;5013010;28;20207;-73
2021/07/04 01:39:31;;;;;;;3.73;3.43;;;;;;;14.65;97.43;100113.19;5019468;28;20176;-73
2021/07/04 01:41:56;;;;;;;7.10;3.43;;;;;;;14.68;97.52;100126.22;5021090;28;20687;-73
2021/07/04 01:44:22;;;;;;;3.77;3.47;;;;;;;14.77;97.07;100118.66;5018341;28;20181;-73
2021/07/04 01:46:47;;;;;;;3.83;3.53;;;;;;;14.71;96.59;100120.03;5014165;28;20215;-73
2021/07/04 01:49:13;;;;;;;2.93;2.73;;;;;;;14.58;96.31;100116.50;5013747;28;20185;-74
2021/07/04 01:51:38;;;;;;;4.00;3.70;;;;;;;14.53;96.85;100110.44;5013647;28;20613;-73
2021/07/04 01:54:04;;;;;;;3.30;3.00;;;;;;;14.56;97.78;100118.81;5013729;28;20513;-73
2021/07/04 01:56:29;;;;;;;3.83;3.53;;;;;;;14.62;97.64;100113.09;5009890;28;20202;-73
2021/07/04 01:58:54;;;;;;;3.70;3.40;;;;;;;14.66;97.67;100105.75;4993931;28;20509;-73
2021/07/04 02:01:20;;;;;;;3.80;3.53;;;;;;;14.72;97.78;100098.84;4993933;28;20227;-73
2021/07/04 02:03:45;;;;;;;3.13;2.93;;;;;;;14.77;97.43;100102.16;4993862;28;20243;-73
2021/07/04 02:06:11;;;;;;;3.60;3.40;;;;;;;14.82;96.25;100098.34;4993725;28;20231;-73
2021/07/04 02:08:36;;;;;;;3.40;3.17;;;;;;;14.79;95.11;100094.38;4992892;28;20185;-73
2021/07/04 02:11:02;;;;;;;3.37;3.17;;;;;;;14.71;94.87;100100.78;4993792;28;20169;-73
2021/07/04 02:13:27;;;;;;;3.73;3.53;;;;;;;14.63;94.82;100093.50;4993637;28;20188;-73
2021/07/04 02:15:52;;;;;;;2.90;2.70;;;;;;;14.49;95.05;100093.06;4993788;28;20183;-73
2021/07/04 02:18:18;;;;;;;4.10;3.80;;;;;;;14.42;95.91;100095.53;4993845;28;20173;-74
2021/07/04 02:20:45;;;;;;;4.07;3.77;;;;;;;14.36;96.36;100103.22;4993480;28;20192;-74
2021/07/04 02:23:19;;;;;;;3.50;3.27;;;;;;;14.24;97.14;100101.28;4993482;28;20578;-73
2021/07/04 02:25:46;;;;;;;4.43;3.93;;;;;;;14.20;97.81;100105.06;4993342;28;20705;-74
2021/07/04 02:28:14;;;;;;;4.03;3.63;;;;;;;14.22;98.04;100105.53;4993428;28;20208;-73
2021/07/04 02:30:40;;;;;;;4.03;3.73;;;;;;;14.10;97.84;100108.28;4993240;28;20177;-73
2021/07/04 02:33:08;;;;;;;3.50;3.20;;;;;;;13.80;98.34;100104.94;4993359;28;20269;-73
2021/07/04 02:35:36;;;;;;;3.47;3.27;;;;;;;13.64;100.00;100119.31;4993141;28;20212;-73
2021/07/04 02:38:03;;;;;;;3.77;3.47;;;;;;;13.63;100.00;100120.47;4993297;28;20188;-73
2021/07/04 02:40:29;;;;;;;3.57;3.37;;;;;;;13.72;100.00;100125.03;4993187;28;20201;-73
2021/07/04 02:42:56;;;;;;;3.87;3.57;;;;;;;13.80;100.00;100126.91;4993054;28;20660;-73
2021/07/04 02:45:21;;;;;;;4.33;4.03;;;;;;;13.84;100.00;100131.34;4993104;28;20849;-73
2021/07/04 02:47:47;;;;;;;4.27;3.97;;;;;;;13.84;100.00;100119.56;4993073;28;20181;-73
2021/07/04 02:50:12;;;;;;;4.50;4.10;;;;;;;13.78;100.00;100129.19;4992944;28;20181;-74
2021/07/04 02:52:39;;;;;;;4.40;4.00;;;;;;;13.62;100.00;100132.59;4992844;28;20184;-73
2021/07/04 02:55:06;;;;;;;3.97;3.47;;;;;;;13.54;100.00;100132.66;4992887;28;20227;-73
2021/07/04 02:57:31;;;;;;;3.90;3.03;;;;;;;13.47;100.00;100133.22;4993257;28;20174;-73
2021/07/04 02:59:56;;;;;;;3.93;3.63;;;;;;;13.43;100.00;100123.25;4992971;28;20185;-73
2021/07/04 03:02:22;;;;;;;5.53;5.13;;;;;;;13.51;100.00;100125.09;4992676;28;20181;-73
2021/07/04 03:04:48;;;;;;;4.70;4.40;;;;;;;13.57;100.00;100126.50;4992586;28;20169;-73
2021/07/04 03:07:14;;;;;;;4.47;4.17;;;;;;;13.61;100.00;100121.94;4992585;28;20169;-73
2021/07/04 03:09:40;;;;;;;4.33;3.93;;;;;;;13.76;100.00;100123.22;4992561;28;20648;-73
2021/07/04 03:12:06;;;;;;;4.87;4.47;;;;;;;13.83;100.00;100124.25;4992424;28;20264;-74
2021/07/04 03:14:32;;;;;;;4.97;4.57;;;;;;;13.88;100.00;100120.47;4992692;28;20181;-74
2021/07/04 03:16:57;;;;;;;4.90;4.43;;;;;;;13.79;100.00;100123.34;4992506;28;20173;-74
2021/07/04 03:19:23;;;;;;;4.53;3.93;;;;;;;13.67;100.00;100113.13;4992431;28;20212;-74
2021/07/04 03:21:48;;;;;;;3.97;3.70;;;;;;;13.81;100.00;100123.00;4992250;28;20529;-74
2021/07/04 03:24:13;;;;;;;5.23;4.67;;;;;;;13.99;100.00;100122.44;4992360;28;20228;-74
2021/07/04 03:26:40;;;;;;;4.77;4.37;;;;;;;14.06;100.00;100126.59;4992266;28;20201;-74
2021/07/04 03:29:05;;;;;;;4.00;3.70;;;;;;;14.18;100.00;100129.34;4992647;28;20272;-74
2021/07/04 03:31:31;;;;;;;4.57;4.17;;;;;;;14.25;100.00;100115.81;4992023;28;20680;-73
2021/07/04 03:33:56;;;;;;;4.20;3.90;;;;;;;14.42;100.00;100117.53;4992227;28;20200;-74
2021/07/04 03:36:21;;;;;;;4.50;4.20;;;;;;;14.29;100.00;100122.22;4992111;28;20181;-74
2021/07/04 03:38:47;;;;;;;4.63;4.23;;;;;;;14.40;100.00;100117.06;4992431;28;20268;-74
2021/07/04 03:41:12;;;;;;;4.13;3.83;;;;;;;14.11;100.00;100116.16;4992010;28;20661;-74
2021/07/04 03:43:37;;;;;;;4.60;4.20;;;;;;;14.25;100.00;100110.34;4992041;28;20191;-74
2021/07/04 03:46:03;;;;;;;4.07;3.77;;;;;;;14.47;99.84;100114.59;4991912;28;20687;-73
2021/07/04 03:48:28;;;;;;;3.77;3.47;;;;;;;14.55;99.37;100121.91;4991882;28;20260;-74
2021/07/04 03:50:53;;;;;;;4.53;4.23;;;;;;;14.62;98.45;100111.13;4991590;28;20319;-74
2021/07/04 03:53:19;;;;;;;4.27;3.93;;;;;;;14.61;98.47;100112.28;4991927;28;20517;-73
2021/07/04 03:55:44;;;;;;;3.83;3.53;;;;;;;14.60;99.33;100116.16;4991816;28;20220;-74
2021/07/04 03:58:10;;;;;;;4.10;3.80;;;;;;;14.57;99.99;100117.66;4991757;28;20169;-74
2021/07/04 04:00:36;;;;;;;3.67;3.47;;;;;;;14.56;99.58;100121.56;4991760;28;20648;-74
2021/07/04 04:03:01;;;;;;;4.40;4.07;;;;;;;14.66;99.68;100114.00;4991505;28;20166;-74
2021/07/04 04:05:26;;;;;;;4.73;4.33;;;;;;;14.83;99.84;100105.47;4991467;28;20224;-74
2021/07/04 04:07:52;;;;;;;3.53;3.23;;;;;;;14.97;98.50;100108.63;4991690;28;20178;-74
2021/07/04 04:10:17;;;;;;;4.63;4.23;;;;;;;15.01;97.46;100109.53;4990225;28;20320;-74
2021/07/04 04:12:42;;;;;;;4.03;3.73;;;;;;;14.99;97.36;100100.03;4991320;28;20192;-74
2021/07/04 04:15:10;;;;;;;4.47;4.10;;;;;;;15.00;97.86;100110.66;4991574;28;20247;-73
2021/07/04 04:17:35;;;;;;;3.30;3.10;;;;;;;14.94;97.47;100098.31;4990091;28;20169;-72
2021/07/04 04:20:03;;;;;;;4.63;4.27;;;;;;;15.01;97.56;100092.22;4991424;28;20176;-72
2021/07/04 04:22:28;;;;;;;4.47;4.07;;;;;;;15.04;96.79;100095.06;4991213;28;20177;-72
2021/07/04 04:24:54;;;;;;;8.40;4.40;;;;;;;15.11;96.54;100100.78;4991225;28;20216;-73
2021/07/04 04:27:19;;;;;;;7.07;3.70;;;;;;;15.18;96.74;100106.47;4991414;28;20177;-72
2021/07/04 04:29:45;;;;;;;4.23;3.83;;;;;;;15.26;96.11;100101.19;4991503;28;20187;-72
2021/07/04 04:32:10;;;;;;;4.23;3.83;;;;;;;14.92;96.19;100108.09;4993470;28;20200;-72
2021/07/04 04:34:35;;;;;;;5.10;4.70;;;;;;;14.73;97.72;100106.72;4997869;28;20288;-72
2021/07/04 04:37:02;;;;;;;5.37;4.97;;;;;;;14.84;98.48;100116.13;4997733;28;20255;-72
2021/07/04 04:39:27;;;;;;;6.37;4.90;;;;;;;14.84;98.98;100107.84;4997847;28;20183;-72
2021/07/04 04:41:53;;;;;;;4.60;4.20;;;;;;;14.84;98.98;100118.88;4997528;28;20633;-72
2021/07/04 04:44:18;;;;;;;5.30;4.90;;;;;;;14.86;99.09;100111.06;4997777;28;20187;-72
2021/07/04 04:46:44;;;;;;;4.53;4.23;;;;;;;14.93;99.08;100113.22;4997684;28;20373;-72
2021/07/04 04:49:10;;;;;;;5.30;4.80;;;;;;;15.03;99.07;100106.41;4996367;28;20192;-72
2021/07/04 04:51:40;;;;;;;4.70;4.30;;;;;;;15.25;99.12;100116.09;4997547;28;20227;-73
2021/07/04 04:54:06;;;;;;;7.07;4.20;;;;;;;15.22;98.73;100106.59;4996406;28;20177;-72
2021/07/04 04:56:32;;;;;;;4.33;4.03;;;;;;;15.30;98.78;100119.38;4997730;28;20199;-73
2021/07/04 04:58:58;;;;;;;4.93;4.47;;;;;;;15.36;98.16;100114.44;4996432;28;20274;-73
2021/07/04 05:01:27;;;;;;;5.10;4.70;;;;;;;15.29;98.95;100114.22;4997572;28;20232;-72
2021/07/04 05:03:52;;;;;;;4.83;4.43;;;;;;;15.52;98.85;100117.22;4996342;28;20201;-72
2021/07/04 05:06:18;;;;;;;4.73;4.43;;;;;;;15.69;98.59;100116.94;4997747;28;20287;-72
2021/07/04 05:08:43;;;;;;;4.83;4.53;;;;;;;15.87;98.19;100107.16;4997485;28;20219;-72
2021/07/04 05:11:09;;;;;;;6.00;3.90;;;;;;;15.94;96.54;100114.81;4997451;28;20173;-72
2021/07/04 05:13:36;;;;;;;5.17;4.80;;;;;;;15.92;96.15;100112.41;4997860;28;20699;-72
2021/07/04 05:16:01;;;;;;;4.50;4.20;;;;;;;15.77;96.73;100119.53;4997549;28;20177;-72
2021/07/04 05:18:26;;;;;;;4.90;4.40;;;;;;;15.66;96.35;100121.19;4997441;28;20184;-73
2021/07/04 05:20:52;;;;;;;8.07;4.63;;;;;;;15.59;96.24;100114.66;4997254;28;20181;-72
2021/07/04 05:23:17;;;;;;;4.53;4.23;;;;;;;15.58;95.99;100113.06;4997529;28;20629;-72
2021/07/04 05:25:42;;;;;;;3.80;3.60;;;;;;;15.61;95.52;100123.38;5006549;28;20618;-72
2021/07/04 05:28:08;;;;;;;5.13;4.77;;;;;;;15.55;95.95;100125.56;5015830;28;20703;-72
2021/07/04 05:30:33;;;;;;;6.00;5.13;;;;;;;15.52;96.49;100129.03;5008888;28;20714;-72
2021/07/04 05:32:59;;;;;;;5.23;4.87;;;;;;;15.42;96.47;100116.56;5000496;28;20656;-72
2021/07/04 05:35:25;;;;;;;4.60;4.20;;;;;;;15.67;97.11;100117.28;4997346;28;20204;-72
2021/07/04 05:37:50;;;;;;;5.10;4.80;;;;;;;15.87;96.93;100115.41;4997325;28;20629;-72
2021/07/04 05:40:16;;;;;;;5.20;4.77;;;;;;;16.00;95.67;100119.69;4997268;28;20188;-72
2021/07/04 05:42:42;;;;;;;4.43;4.13;;;;;;;16.01;94.29;100124.03;4996965;28;20188;-72
2021/07/04 05:45:10;;;;;;;4.20;3.90;;;;;;;16.03;94.63;100112.66;4994199;28;20209;-72
2021/07/04 05:47:37;;;;;;;4.67;4.30;;;;;;;16.05;94.32;100111.16;4994104;28;20312;-72
2021/07/04 05:50:03;;;;;;;4.90;4.40;;;;;;;16.12;95.08;100118.00;4994102;28;20680;-72
2021/07/04 05:52:30;;;;;;;4.33;4.03;;;;;;;16.02;96.07;100109.09;4993988;28;20177;-72
2021/07/04 05:54:56;;;;;;;5.30;4.90;;;;;;;15.96;96.97;100107.00;4994100;28;20177;-72
2021/07/04 05:57:21;;;;;;;5.13;4.73;;;;;;;16.06;97.24;100107.25;4994038;28;20323;-72
2021/07/04 05:59:47;;;;;;;4.83;4.43;;;;;;;16.12;96.80;100109.75;4993957;28;20524;-72
2021/07/04 06:02:12;;;;;;;5.53;5.00;;;;;;;16.15;96.73;100104.31;4993694;28;20177;-72
2021/07/04 06:04:37;;;;;;;5.20;4.87;;;;;;;16.26;96.59;100105.38;4993674;28;20188;-72
2021/07/04 06:07:03;;;;;;;4.90;4.60;;;;;;;16.30;95.52;100108.19;4993773;28;20188;-72
2021/07/04 06:09:28;;;;;;;4.87;4.47;;;;;;;16.14;94.36;100108.22;4993721;28;20180;-72
2021/07/04 06:11:54;;;;;;;5.10;4.70;;;;;;;16.25;94.78;100103.78;4993594;28;20181;-72
2021/07/04 06:14:19;;;;;;;4.97;4.40;;;;;;;16.42;94.43;100099.03;4993772;28;20181;-72
2021/07/04 06:16:45;;;;;;;4.50;4.20;;;;;;;16.53;94.22;100103.63;4993741;28;20191;-72
2021/07/04 06:19:10;;;;;;;5.33;4.93;;;;;;;16.64;93.85;100101.13;4992274;28;20193;-72
2021/07/04 06:21:35;;;;;;;7.67;4.97;;;;;;;16.68;93.70;100104.78;4993811;28;20227;-73
2021/07/04 06:24:01;;;;;;;5.93;5.47;;;;;;;16.74;93.13;100106.09;4993814;28;20185;-72
2021/07/04 06:26:27;;;;;;;4.50;4.20;;;;;;;16.75;93.56;100104.91;4993922;28;20212;-72
2021/07/04 06:28:52;;;;;;;5.43;4.93;;;;;;;16.80;94.15;100107.41;4993513;28;20188;-72
2021/07/04 06:31:18;;;;;;;4.83;4.43;;;;;;;16.92;94.09;100109.22;4992010;28;20209;-72
2021/07/04 06:33:45;;;;;;;5.57;5.00;;;;;;;16.96;93.88;100104.59;4999794;28;20184;-72
2021/07/04 06:36:10;;;;;;;4.53;4.13;;;;;;;16.99;94.61;100100.31;5012915;28;20632;-72
2021/07/04 06:38:36;;;;;;;4.93;4.63;;;;;;;17.07;94.63;100102.03;5012768;28;20184;-72
2021/07/04 06:41:01;;;;;;;5.80;5.23;;;;;;;17.17;94.64;100099.50;5012704;28;20588;-72
2021/07/04 06:43:27;;;;;;;5.23;4.87;;;;;;;17.29;94.35;100100.50;5012890;28;20247;-74
2021/07/04 06:45:53;;;;;;;5.63;5.23;;;;;;;17.22;94.57;100095.66;5006790;28;20200;-74
2021/07/04 06:48:19;;;;;;;4.37;4.07;;;;;;;17.35;94.49;100090.75;5004026;28;20640;-75
2021/07/04 06:50:44;;;;;;;4.40;4.10;;;;;;;17.16;93.52;100100.66;5001622;28;20236;-75
2021/07/04 06:53:09;;;;;;;4.70;4.40;;;;;;;17.25;93.77;100098.47;5001550;28;20184;-75
2021/07/04 06:55:35;;;;;;;5.57;5.17;;;;;;;17.33;93.75;100091.13;5002415;28;20173;-76
2021/07/04 06:58:00;;;;;;;6.00;5.33;;;;;;;17.41;94.48;100103.91;5006762;28;20191;-72
2021/07/04 07:00:27;;;;;;;5.10;4.70;;;;;;;17.35;92.33;100094.31;5012465;28;20173;-72
2021/07/04 07:02:52;;;;;;;5.50;4.93;;;;;;;17.39;92.72;100088.88;5012050;28;20208;-72
2021/07/04 07:05:19;;;;;;;5.60;5.00;;;;;;;17.41;92.02;100092.88;5012235;28;20236;-73
2021/07/04 07:07:44;;;;;;;5.00;4.67;;;;;;;17.40;91.56;100091.25;5012254;28;20655;-72
2021/07/04 07:10:12;;;;;;;5.20;4.67;;;;;;;17.63;91.60;100094.03;5012346;28;20177;-72
2021/07/04 07:12:41;;;;;;;5.60;5.10;;;;;;;18.02;91.44;100093.94;5012163;28;20586;-72
2021/07/04 07:15:08;;;;;;;6.37;4.83;;;;;;;18.22;92.04;100105.72;5012135;28;20183;-72
2021/07/04 07:17:33;;;;;;;5.80;5.30;;;;;;;18.26;90.95;100074.19;5012137;28;20180;-71
2021/07/04 07:19:59;;;;;;;5.47;5.07;;;;;;;18.40;90.01;100062.56;5012250;28;20183;-72
2021/07/04 07:22:24;;;;;;;4.80;4.47;;;;;;;18.60;89.12;100064.00;5012027;28;20181;-72
2021/07/04 07:24:50;;;;;;;5.67;4.87;;;;;;;18.87;88.74;100058.44;5012193;28;20188;-72
2021/07/04 07:27:16;;;;;;;5.63;5.23;;;;;;;19.12;88.00;100047.69;5012007;28;20180;-72
2021/07/04 07:29:42;;;;;;;5.40;5.00;;;;;;;19.27;86.95;100044.69;5011885;28;20802;-73
2021/07/04 07:32:07;;;;;;;5.70;5.30;;;;;;;19.28;84.12;100051.81;5011889;28;20181;-72
2021/07/04 07:34:33;;;;;;;5.27;4.87;;;;;;;19.34;85.17;100049.47;5005995;28;20181;-73
2021/07/04 07:36:59;;;;;;;5.63;4.87;;;;;;;19.41;85.22;100048.78;5008719;28;20264;-72
2021/07/04 07:39:24;;;;;;;5.40;5.00;;;;;;;19.54;84.66;100050.91;4992292;28;20652;-71
2021/07/04 07:41:50;;;;;;;5.50;5.10;;;;;;;19.67;83.55;100043.09;4992845;28;20565;-72
2021/07/04 07:44:16;;;;;;;4.90;4.60;;;;;;;19.76;81.83;100051.91;4992015;28;20188;-72
2021/07/04 07:46:42;;;;;;;5.70;5.30;;;;;;;19.73;81.55;100051.88;4996700;28;20259;-72
2021/07/04 07:49:08;;;;;;;12.67;5.83;;;;;;;19.81;81.21;100042.41;4999630;28;20178;-72
2021/07/04 07:51:34;;;;;;;5.23;4.83;;;;;;;19.69;79.04;100043.53;4992180;28;20256;-72
2021/07/04 07:53:59;;;;;;;4.57;4.27;;;;;;;19.87;80.11;100044.47;4991336;28;20312;-72
2021/07/04 07:56:25;;;;;;;6.20;5.73;;;;;;;19.80;80.58;100041.63;4991548;28;20232;-72
2021/07/04 07:58:51;;;;;;;5.00;4.60;;;;;;;19.86;80.73;100037.34;4991124;28;20323;-72
2021/07/04 08:01:17;;;;;;;5.13;4.73;;;;;;;19.98;80.46;100039.00;4991465;28;20213;-72
2021/07/04 08:03:43;;;;;;;7.00;5.87;;;;;;;20.08;80.14;100041.03;4991623;28;20181;-72
2021/07/04 08:06:09;;;;;;;5.13;4.67;;;;;;;20.20;80.29;100043.50;4990877;28;20212;-72
2021/07/04 08:08:35;;;;;;;5.50;5.10;;;;;;;20.32;80.65;100033.28;4990825;28;20264;-74
2021/07/04 08:11:01;;;;;;;5.73;5.33;;;;;;;20.14;76.27;100039.53;4990973;28;20626;-72
2021/07/04 08:13:26;;;;;;;5.30;4.97;;;;;;;20.16;77.52;100031.59;4991271;28;20185;-72
2021/07/04 08:15:52;;;;;;;5.03;4.67;;;;;;;20.17;79.05;100030.44;4991273;28;20300;-72
2021/07/04 08:18:17;;;;;;;5.77;5.20;;;;;;;20.30;79.26;100030.91;4991185;28;20181;-72
2021/07/04 08:20:42;;;;;;;5.13;4.73;;;;;;;20.52;77.72;100028.25;4991087;28;20185;-72
2021/07/04 08:23:08;;;;;;;4.97;4.57;;;;;;;20.75;77.74;100029.56;4991193;28;20230;-72
2021/07/04 08:25:34;;;;;;;4.80;4.40;;;;;;;20.90;77.02;100032.41;4990885;28;20599;-71
2021/07/04 08:28:00;;;;;;;5.03;4.73;;;;;;;21.01;76.27;100024.91;4991069;28;20189;-72
2021/07/04 08:30:25;;;;;;;5.33;4.83;;;;;;;20.94;74.46;100027.66;4991026;28;20226;-71
2021/07/04 08:32:50;;;;;;;5.70;5.30;;;;;;;20.96;74.87;100022.50;4990795;28;20181;-72
2021/07/04 08:35:16;;;;;;;5.40;5.00;;;;;;;21.11;75.60;100024.13;4991130;28;20193;-72
2021/07/04 08:37:41;;;;;;;6.13;5.67;;;;;;;20.89;74.75;100026.06;4990990;28;20196;-71
2021/07/04 08:40:08;;;;;;;5.50;5.10;;;;;;;20.66;75.39;100020.78;4991437;28;20209;-71
2021/07/04 08:42:34;;;;;;;6.13;5.73;;;;;;;20.64;74.40;100022.38;4991278;28;20196;-72
2021/07/04 08:44:59;;;;;;;6.63;6.13;;;;;;;20.68;74.28;100028.75;4989618;28;20633;-72
2021/07/04 08:47:25;;;;;;;5.97;5.47;;;;;;;20.93;74.09;100023.28;4990890;28;20177;-72
2021/07/04 08:49:53;;;;;;;5.57;5.17;;;;;;;21.19;75.41;100020.19;4990779;28;20220;-72
2021/07/04 08:52:18;;;;;;;4.77;4.47;;;;;;;21.47;75.22;100013.91;4990598;28;20177;-72
2021/07/04 08:54:44;;;;;;;5.67;5.17;;;;;;;21.60;71.25;100017.09;4991192;28;20237;-71
2021/07/04 08:57:11;;;;;;;5.50;5.10;;;;;;;21.38;71.00;100013.50;4990798;28;20170;-71
2021/07/04 08:59:40;;;;;;;4.63;4.30;;;;;;;21.25;68.49;100003.94;4990719;28;20508;-72
2021/07/04 09:02:11;;;;;;;5.33;4.93;;;;;;;21.44;69.65;100008.38;4990474;28;20169;-72
2021/07/04 09:04:38;;;;;;;4.90;4.50;;;;;;;21.53;68.41;100008.75;4990725;28;20272;-72
2021/07/04 09:07:05;;;;;;;5.03;4.73;;;;;;;21.82;70.94;100012.31;4990558;28;20212;-72
2021/07/04 09:09:33;;;;;;;6.00;5.60;;;;;;;21.92;68.75;100003.19;4989363;28;20184;-72
2021/07/04 09:12:06;;;;;;;5.33;4.93;;;;;;;22.13;70.56;100003.19;4989011;28;20173;-71
2021/07/04 09:14:41;;;;;;;5.07;4.67;;;;;;;22.45;69.48;100008.69;4990742;28;20266;-72
2021/07/04 09:17:10;;;;;;;5.70;5.30;;;;;;;22.61;68.86;100008.22;4989319;28;20188;-71
2021/07/04 09:19:37;;;;;;;5.10;4.67;;;;;;;22.72;67.14;100013.75;4993459;28;20174;-71
2021/07/04 09:22:07;;;;;;;5.27;4.87;;;;;;;22.80;68.39;100001.38;4994100;28;20181;-71
2021/07/04 09:24:38;;;;;;;4.90;4.50;;;;;;;22.89;68.67;100000.97;4994032;28;20237;-72
2021/07/04 09:27:04;;;;;;;5.83;5.33;;;;;;;22.26;68.15;99990.44;4994148;28;20209;-71
2021/07/04 09:29:39;;;;;;;6.70;6.20;;;;;;;22.39;69.70;99995.56;4994142;28;20169;-72
2021/07/04 09:32:24;;;;;;;5.20;4.80;;;;;;;22.21;70.09;99984.47;4992565;28;20231;-72
2021/07/04 09:35:11;;;;;;;6.13;5.63;;;;;;;21.99;71.00;99983.72;4994038;28;20217;-71
2021/07/04 09:37:41;;;;;;;5.13;4.73;;;;;;;21.95;69.96;99985.69;4994146;28;20177;-72
2021/07/04 09:40:27;;;;;;;4.60;4.30;;;;;;;22.31;69.62;99988.44;4992713;28;20604;-71
2021/07/04 09:42:52;;;;;;;4.60;4.30;;;;;;;22.61;69.89;99985.94;4993532;28;20196;-71
2021/07/04 09:45:18;;;;;;;4.70;4.40;;;;;;;22.72;66.84;99983.13;4992346;28;20205;-71
2021/07/04 09:47:53;;;;;;;4.93;4.63;;;;;;;22.46;66.43;99973.28;4994058;28;20185;-72
2021/07/04 09:50:19;;;;;;;5.57;5.20;;;;;;;22.44;68.11;99984.03;4993759;28;20169;-72
2021/07/04 09:53:03;;;;;;;5.47;5.17;;;;;;;22.37;66.90;99978.47;4993837;28;20688;-72
2021/07/04 09:55:30;;;;;;;4.73;4.43;;;;;;;22.66;67.04;99977.16;4993860;28;20177;-71
2021/07/04 09:58:02;;;;;;;3.77;3.57;;;;;;;22.88;63.71;99977.09;4993532;28;20260;-71
2021/07/04 10:00:31;;;;;;;4.47;3.80;;;;;;;23.17;66.76;99970.16;4992348;28;20183;-71
2021/07/04 10:03:09;;;;;;;4.40;4.10;;;;;;;23.55;65.62;99970.25;4993284;28;20607;-72
2021/07/04 10:05:36;;;;;;;5.47;4.93;;;;;;;23.26;61.89;99961.31;4992154;28;20213;-71
2021/07/04 10:08:17;;;;;;;5.13;4.83;;;;;;;23.38;63.98;99956.06;4993347;28;20263;-72
2021/07/04 10:10:43;;;;;;;4.07;3.70;;;;;;;23.40;60.66;99955.63;4993562;28;20220;-72
2021/07/04 10:13:08;;;;;;;4.80;4.40;;;;;;;23.35;59.36;99956.09;4993399;28;20533;-72
2021/07/04 10:15:33;;;;;;;3.43;3.13;;;;;;;23.78;62.94;99947.38;4993398;28;20177;-72
2021/07/04 10:17:59;;;;;;;4.00;3.60;;;;;;;23.92;58.05;99945.25;4993465;28;20592;-72
2021/07/04 10:20:25;;;;;;;4.00;3.60;;;;;;;24.07;60.23;99945.09;4993353;28;20185;-72
2021/07/04 10:22:50;;;;;;;3.50;3.30;;;;;;;24.21;58.76;99937.34;4992921;28;20602;-71
2021/07/04 10:25:16;;;;;;;3.43;3.13;;;;;;;24.26;56.39;99934.09;4991624;28;20241;-72
2021/07/04 10:27:42;;;;;;;4.23;4.00;;;;;;;23.67;56.85;99934.31;4993155;28;20178;-71
2021/07/04 10:30:07;;;;;;;3.70;3.47;;;;;;;23.68;57.45;99927.53;4992216;28;20654;-72
2021/07/04 10:32:33;;;;;;;3.60;3.40;;;;;;;23.90;57.43;99930.91;4992729;28;20177;-71
2021/07/04 10:35:09;;;;;;;4.30;4.00;;;;;;;23.50;55.92;99929.66;4993046;28;20177;-72
2021/07/04 10:37:38;;;;;;;3.50;3.20;;;;;;;23.82;58.05;99923.03;4991611;28;20173;-71
2021/07/04 10:40:21;;;;;;;3.50;3.30;;;;;;;23.84;56.61;99915.81;4992729;28;20290;-72
2021/07/04 10:42:47;;;;;;;4.90;4.53;;;;;;;23.93;58.56;99912.53;4992666;28;20231;-71
2021/07/04 10:45:30;;;;;;;4.00;3.70;;;;;;;24.04;57.81;99910.44;4992749;28;20201;-71
2021/07/04 10:48:17;;;;;;;3.27;3.07;;;;;;;24.35;56.97;99907.72;4992750;28;20189;-71
2021/07/04 10:51:08;;;;;;;3.50;3.30;;;;;;;24.17;55.63;99905.13;4982310;28;20185;-71
2021/07/04 10:53:42;;;;;;;3.57;3.27;;;;;;;24.19;53.87;99897.91;4992650;28;20180;-72
2021/07/04 10:56:41;;;;;;;3.10;2.90;;;;;;;24.46;54.59;99894.41;4992687;28;20416;-72
2021/07/04 10:59:12;;;;;;;3.30;3.10;;;;;;;24.70;56.13;99889.66;4959735;28;20190;-72
2021/07/04 11:01:50;;;;;;;3.23;3.03;;;;;;;24.49;55.59;99882.38;4992492;28;20180;-72
2021/07/04 11:04:27;;;;;;;3.40;3.20;;;;;;;24.19;55.06;99880.34;4992373;28;20636;-72
2021/07/04 11:06:57;;;;;;;4.47;4.07;;;;;;;24.09;54.63;99878.47;4995932;28;20208;-71
2021/07/04 11:09:22;;;;;;;3.93;3.53;;;;;;;24.25;55.42;99871.09;5005944;28;20652;-72
2021/07/04 11:11:48;;;;;;;5.67;4.00;;;;;;;24.47;52.23;99877.22;5002987;28;20181;-74
2021/07/04 11:14:13;;;;;;;3.63;3.43;;;;;;;24.52;54.19;99870.38;5012131;28;20341;-73
2021/07/04 11:17:02;;;;;;;3.60;3.40;;;;;;;24.75;55.19;99867.66;5006327;28;20181;-72
2021/07/04 11:19:27;;;;;;;4.17;3.97;;;;;;;24.56;54.21;99866.31;5000709;28;20173;-72
2021/07/04 11:21:56;;;;;;;3.90;3.70;;;;;;;25.02;57.19;99864.06;4992213;28;20177;-72
2021/07/04 11:24:26;;;;;;;4.23;3.93;;;;;;;24.97;55.26;99862.50;4992313;28;20185;-71
2021/07/04 11:27:25;;;;;;;4.40;4.00;;;;;;;24.80;55.55;99860.78;4992688;28;20209;-72